sensor_id;sensor_type;location;lat;lon;timestamp;temperature;humidity
10885;DHT22;5495;53.252;10.390;2023-03-12T00:00:09;3.10;99.90
10885;DHT22;5495;53.252;10.390;2023-03-12T00:02:46;3.00;99.90
10885;DHT22;5495;53.252;10.390;2023-03-12T00:05:21;2.90;99.90
10885;DHT22;5495;53.252;10.390;2023-03-12T00:07:50;2.60;99.90
10885;DHT22;5495;53.252;10.390;2023-03-12T00:10:18;2.80;99.90
10885;DHT22;5495;53.252;10.390;2023-03-12T00:12:57;2.70;99.90
10885;DHT22;5495;53.252;10.390;2023-03-12T00:15:24;2.50;99.90
10885;DHT22;5495;53.252;10.390;2023-03-12T00:17:52;2.60;99.90
10885;DHT22;5495;53.252;10.390;2023-03-12T00:20:21;2.40;99.90
10885;DHT22;5495;53.252;10.390;2023-03-12T00:22:49;2.30;99.90
10885;DHT22;5495;53.252;10.390;2023-03-12T00:25:16;2.20;99.90
10885;DHT22;5495;53.252;10.390;2023-03-12T00:27:46;2.20;99.90
10885;DHT22;5495;53.252;10.390;2023-03-12T00:30:14;2.20;99.90
10885;DHT22;5495;53.252;10.390;2023-03-12T00:32:41;2.10;99.90
10885;DHT22;5495;53.252;10.390;2023-03-12T00:35:08;2.10;99.90
10885;DHT22;5495;53.252;10.390;2023-03-12T00:37:38;2.00;99.90
10885;DHT22;5495;53.252;10.390;2023-03-12T00:40:06;2.00;99.90
10885;DHT22;5495;53.252;10.390;2023-03-12T00:42:35;2.10;99.90
10885;DHT22;5495;53.252;10.390;2023-03-12T00:45:06;2.10;99.90
10885;DHT22;5495;53.252;10.390;2023-03-12T00:47:34;2.00;99.90
10885;DHT22;5495;53.252;10.390;2023-03-12T00:50:01;1.90;99.90
10885;DHT22;5495;53.252;10.390;2023-03-12T00:52:28;1.80;99.90
10885;DHT22;5495;53.252;10.390;2023-03-12T00:55:07;1.70;99.90
10885;DHT22;5495;53.252;10.390;2023-03-12T00:57:35;1.50;99.90
10885;DHT22;5495;53.252;10.390;2023-03-12T01:00:03;1.50;99.90
10885;DHT22;5495;53.252;10.390;2023-03-12T01:02:34;1.40;99.90
10885;DHT22;5495;53.252;10.390;2023-03-12T01:05:04;1.40;99.90
10885;DHT22;5495;53.252;10.390;2023-03-12T01:07:31;1.40;99.90
10885;DHT22;5495;53.252;10.390;2023-03-12T01:09:59;1.30;99.90
10885;DHT22;5495;53.252;10.390;2023-03-12T01:12:37;1.10;99.90
10885;DHT22;5495;53.252;10.390;2023-03-12T01:15:05;1.10;99.90
10885;DHT22;5495;53.252;10.390;2023-03-12T01:17:33;1.00;99.90
10885;DHT22;5495;53.252;10.390;2023-03-12T01:20:00;1.00;99.90
10885;DHT22;5495;53.252;10.390;2023-03-12T01:22:28;1.10;99.90
10885;DHT22;5495;53.252;10.390;2023-03-12T01:24:55;1.20;99.90
10885;DHT22;5495;53.252;10.390;2023-03-12T01:27:22;1.30;99.90
10885;DHT22;5495;53.252;10.390;2023-03-12T01:29:51;1.40;99.90
10885;DHT22;5495;53.252;10.390;2023-03-12T01:32:19;1.40;99.90
10885;DHT22;5495;53.252;10.390;2023-03-12T01:34:56;1.30;99.90
10885;DHT22;5495;53.252;10.390;2023-03-12T01:37:23;1.20;99.90
10885;DHT22;5495;53.252;10.390;2023-03-12T01:39:50;1.50;99.90
10885;DHT22;5495;53.252;10.390;2023-03-12T01:42:18;1.50;99.90
10885;DHT22;5495;53.252;10.390;2023-03-12T01:44:54;1.40;99.90
10885;DHT22;5495;53.252;10.390;2023-03-12T01:47:23;1.30;99.90
10885;DHT22;5495;53.252;10.390;2023-03-12T01:50:04;1.20;99.90
10885;DHT22;5495;53.252;10.390;2023-03-12T01:52:35;1.20;99.90
10885;DHT22;5495;53.252;10.390;2023-03-12T01:55:05;1.30;99.90
10885;DHT22;5495;53.252;10.390;2023-03-12T01:57:36;1.20;99.90
10885;DHT22;5495;53.252;10.390;2023-03-12T02:00:08;1.20;99.90
10885;DHT22;5495;53.252;10.390;2023-03-12T02:02:37;1.20;99.90
10885;DHT22;5495;53.252;10.390;2023-03-12T02:05:12;1.20;99.90
10885;DHT22;5495;53.252;10.390;2023-03-12T02:07:42;1.10;99.90
10885;DHT22;5495;53.252;10.390;2023-03-12T02:10:10;1.10;99.90
10885;DHT22;5495;53.252;10.390;2023-03-12T02:12:39;1.10;99.90
10885;DHT22;5495;53.252;10.390;2023-03-12T02:15:09;1.00;99.90
10885;DHT22;5495;53.252;10.390;2023-03-12T02:17:37;1.10;99.90
10885;DHT22;5495;53.252;10.390;2023-03-12T02:20:19;1.10;99.90
10885;DHT22;5495;53.252;10.390;2023-03-12T02:22:53;1.10;99.90
10885;DHT22;5495;53.252;10.390;2023-03-12T02:25:30;1.00;99.90
10885;DHT22;5495;53.252;10.390;2023-03-12T02:28:02;1.70;99.90
10885;DHT22;5495;53.252;10.390;2023-03-12T02:30:32;-2.10;99.90
10885;DHT22;5495;53.252;10.390;2023-03-12T02:33:04;0.90;99.90
10885;DHT22;5495;53.252;10.390;2023-03-12T02:35:32;1.00;99.90
10885;DHT22;5495;53.252;10.390;2023-03-12T02:37:59;0.80;99.90
10885;DHT22;5495;53.252;10.390;2023-03-12T02:40:48;0.80;99.90
10885;DHT22;5495;53.252;10.390;2023-03-12T02:43:20;0.70;99.90
10885;DHT22;5495;53.252;10.390;2023-03-12T02:45:48;0.70;99.90
10885;DHT22;5495;53.252;10.390;2023-03-12T02:48:16;0.60;99.90
10885;DHT22;5495;53.252;10.390;2023-03-12T02:50:49;0.60;99.90
10885;DHT22;5495;53.252;10.390;2023-03-12T02:53:16;0.60;99.90
10885;DHT22;5495;53.252;10.390;2023-03-12T02:55:43;0.60;99.90
10885;DHT22;5495;53.252;10.390;2023-03-12T02:58:12;0.50;99.90
10885;DHT22;5495;53.252;10.390;2023-03-12T03:00:45;0.50;99.90
10885;DHT22;5495;53.252;10.390;2023-03-12T03:03:12;0.40;99.90
10885;DHT22;5495;53.252;10.390;2023-03-12T03:05:39;0.30;99.90
10885;DHT22;5495;53.252;10.390;2023-03-12T03:08:07;0.40;99.90
10885;DHT22;5495;53.252;10.390;2023-03-12T03:10:37;0.40;99.90
10885;DHT22;5495;53.252;10.390;2023-03-12T03:13:05;0.30;99.90
10885;DHT22;5495;53.252;10.390;2023-03-12T03:15:34;0.20;99.90
10885;DHT22;5495;53.252;10.390;2023-03-12T03:18:01;0.20;99.90
10885;DHT22;5495;53.252;10.390;2023-03-12T03:20:30;0.20;99.90
10885;DHT22;5495;53.252;10.390;2023-03-12T03:22:58;0.20;99.90
10885;DHT22;5495;53.252;10.390;2023-03-12T03:25:25;0.10;99.90
10885;DHT22;5495;53.252;10.390;2023-03-12T03:27:53;0.10;99.90
10885;DHT22;5495;53.252;10.390;2023-03-12T03:30:33;0.70;99.90
10885;DHT22;5495;53.252;10.390;2023-03-12T03:33:01;0.00;99.90
10885;DHT22;5495;53.252;10.390;2023-03-12T03:35:28;0.00;99.90
10885;DHT22;5495;53.252;10.390;2023-03-12T03:37:55;0.10;99.90
10885;DHT22;5495;53.252;10.390;2023-03-12T03:40:25;0.10;99.90
10885;DHT22;5495;53.252;10.390;2023-03-12T03:42:53;0.10;99.90
10885;DHT22;5495;53.252;10.390;2023-03-12T03:45:20;0.20;99.90
10885;DHT22;5495;53.252;10.390;2023-03-12T03:47:49;0.10;99.90
10885;DHT22;5495;53.252;10.390;2023-03-12T03:50:23;0.10;99.90
10885;DHT22;5495;53.252;10.390;2023-03-12T03:52:50;0.10;99.90
10885;DHT22;5495;53.252;10.390;2023-03-12T03:55:18;0.10;99.90
10885;DHT22;5495;53.252;10.390;2023-03-12T03:57:45;0.10;99.90
10885;DHT22;5495;53.252;10.390;2023-03-12T04:00:14;0.10;99.90
10885;DHT22;5495;53.252;10.390;2023-03-12T04:02:43;0.20;99.90
10885;DHT22;5495;53.252;10.390;2023-03-12T04:05:12;0.10;99.90
10885;DHT22;5495;53.252;10.390;2023-03-12T04:07:40;0.00;99.90
10885;DHT22;5495;53.252;10.390;2023-03-12T04:10:12;-0.10;99.90
10885;DHT22;5495;53.252;10.390;2023-03-12T04:12:40;-0.10;99.90
10885;DHT22;5495;53.252;10.390;2023-03-12T04:15:08;-0.10;99.90
10885;DHT22;5495;53.252;10.390;2023-03-12T04:17:45;-0.20;99.90
10885;DHT22;5495;53.252;10.390;2023-03-12T04:20:15;-0.20;99.90
10885;DHT22;5495;53.252;10.390;2023-03-12T04:22:43;-0.10;99.90
10885;DHT22;5495;53.252;10.390;2023-03-12T04:25:11;-0.20;99.90
10885;DHT22;5495;53.252;10.390;2023-03-12T04:31:03;-0.20;99.90
10885;DHT22;5495;53.252;10.390;2023-03-12T04:33:33;0.60;99.90
10885;DHT22;5495;53.252;10.390;2023-03-12T04:36:03;-1.60;99.90
10885;DHT22;5495;53.252;10.390;2023-03-12T04:41:49;-0.40;99.90
10885;DHT22;5495;53.252;10.390;2023-03-12T04:44:16;-0.50;99.90
10885;DHT22;5495;53.252;10.390;2023-03-12T04:46:44;-0.10;99.90
10885;DHT22;5495;53.252;10.390;2023-03-12T04:49:17;-0.40;99.90
10885;DHT22;5495;53.252;10.390;2023-03-12T04:51:46;-0.50;99.90
10885;DHT22;5495;53.252;10.390;2023-03-12T04:54:13;-0.50;99.90
10885;DHT22;5495;53.252;10.390;2023-03-12T04:56:41;-0.50;99.90
10885;DHT22;5495;53.252;10.390;2023-03-12T04:59:09;0.10;99.90
10885;DHT22;5495;53.252;10.390;2023-03-12T05:01:39;-1.30;99.90
10885;DHT22;5495;53.252;10.390;2023-03-12T05:04:07;-0.10;99.90
10885;DHT22;5495;53.252;10.390;2023-03-12T05:06:37;-0.20;99.90
10885;DHT22;5495;53.252;10.390;2023-03-12T05:09:06;-0.20;99.90
10885;DHT22;5495;53.252;10.390;2023-03-12T05:11:33;-0.20;99.90
10885;DHT22;5495;53.252;10.390;2023-03-12T05:14:01;0.00;99.90
10885;DHT22;5495;53.252;10.390;2023-03-12T05:16:29;-1.70;99.90
10885;DHT22;5495;53.252;10.390;2023-03-12T05:18:57;-0.40;99.90
10885;DHT22;5495;53.252;10.390;2023-03-12T05:24:48;-0.60;99.90
10885;DHT22;5495;53.252;10.390;2023-03-12T05:27:15;-1.10;99.90
10885;DHT22;5495;53.252;10.390;2023-03-12T05:29:43;-0.50;99.90
10885;DHT22;5495;53.252;10.390;2023-03-12T05:32:11;-0.60;99.90
10885;DHT22;5495;53.252;10.390;2023-03-12T05:34:39;-0.20;99.90
10885;DHT22;5495;53.252;10.390;2023-03-12T05:40:50;-0.40;99.90
10885;DHT22;5495;53.252;10.390;2023-03-12T05:43:18;-0.50;99.90
10885;DHT22;5495;53.252;10.390;2023-03-12T05:45:46;-0.40;99.90
10885;DHT22;5495;53.252;10.390;2023-03-12T05:51:46;-0.50;99.90
10885;DHT22;5495;53.252;10.390;2023-03-12T05:54:14;-0.40;99.90
10885;DHT22;5495;53.252;10.390;2023-03-12T05:56:44;-0.20;99.90
10885;DHT22;5495;53.252;10.390;2023-03-12T05:59:11;-0.30;99.90
10885;DHT22;5495;53.252;10.390;2023-03-12T06:02:12;0.30;99.90
10885;DHT22;5495;53.252;10.390;2023-03-12T06:04:39;0.30;99.90
10885;DHT22;5495;53.252;10.390;2023-03-12T06:07:07;0.00;99.90
10885;DHT22;5495;53.252;10.390;2023-03-12T06:09:35;0.10;99.90
10885;DHT22;5495;53.252;10.390;2023-03-12T06:12:04;0.00;99.90
10885;DHT22;5495;53.252;10.390;2023-03-12T06:14:32;0.00;99.90
10885;DHT22;5495;53.252;10.390;2023-03-12T06:16:59;0.00;99.90
10885;DHT22;5495;53.252;10.390;2023-03-12T06:19:27;0.00;99.90
10885;DHT22;5495;53.252;10.390;2023-03-12T06:21:54;0.40;99.90
10885;DHT22;5495;53.252;10.390;2023-03-12T06:24:23;0.10;99.90
10885;DHT22;5495;53.252;10.390;2023-03-12T06:26:50;0.30;99.90
10885;DHT22;5495;53.252;10.390;2023-03-12T06:29:19;-1.30;99.90
10885;DHT22;5495;53.252;10.390;2023-03-12T06:31:47;0.60;99.90
10885;DHT22;5495;53.252;10.390;2023-03-12T06:34:29;0.60;99.90
10885;DHT22;5495;53.252;10.390;2023-03-12T06:36:56;0.70;99.90
10885;DHT22;5495;53.252;10.390;2023-03-12T06:39:24;0.70;99.90
10885;DHT22;5495;53.252;10.390;2023-03-12T06:41:52;0.80;99.90
10885;DHT22;5495;53.252;10.390;2023-03-12T06:44:22;0.90;99.90
10885;DHT22;5495;53.252;10.390;2023-03-12T06:46:50;0.80;99.90
10885;DHT22;5495;53.252;10.390;2023-03-12T06:49:17;0.80;99.90
10885;DHT22;5495;53.252;10.390;2023-03-12T06:51:45;0.80;99.90
10885;DHT22;5495;53.252;10.390;2023-03-12T06:54:12;0.90;99.90
10885;DHT22;5495;53.252;10.390;2023-03-12T06:56:40;1.00;99.90
10885;DHT22;5495;53.252;10.390;2023-03-12T06:59:07;1.00;99.90
10885;DHT22;5495;53.252;10.390;2023-03-12T07:01:36;0.30;99.90
10885;DHT22;5495;53.252;10.390;2023-03-12T07:04:04;0.90;99.90
10885;DHT22;5495;53.252;10.390;2023-03-12T07:06:31;1.00;99.90
10885;DHT22;5495;53.252;10.390;2023-03-12T07:08:58;1.00;99.90
10885;DHT22;5495;53.252;10.390;2023-03-12T07:11:26;1.00;99.90
10885;DHT22;5495;53.252;10.390;2023-03-12T07:13:54;1.10;99.90
10885;DHT22;5495;53.252;10.390;2023-03-12T07:16:22;1.10;99.90
10885;DHT22;5495;53.252;10.390;2023-03-12T07:18:51;1.00;99.90
10885;DHT22;5495;53.252;10.390;2023-03-12T07:21:18;1.10;99.90
10885;DHT22;5495;53.252;10.390;2023-03-12T07:23:48;1.10;99.90
10885;DHT22;5495;53.252;10.390;2023-03-12T07:26:16;1.20;99.90
10885;DHT22;5495;53.252;10.390;2023-03-12T07:28:44;1.20;99.90
10885;DHT22;5495;53.252;10.390;2023-03-12T07:31:11;1.30;99.90
10885;DHT22;5495;53.252;10.390;2023-03-12T07:33:38;1.40;99.90
10885;DHT22;5495;53.252;10.390;2023-03-12T07:36:08;1.50;99.90
10885;DHT22;5495;53.252;10.390;2023-03-12T07:38:35;1.70;99.90
10885;DHT22;5495;53.252;10.390;2023-03-12T07:41:03;1.70;99.90
10885;DHT22;5495;53.252;10.390;2023-03-12T07:43:30;1.80;99.90
10885;DHT22;5495;53.252;10.390;2023-03-12T07:45:57;1.90;99.90
10885;DHT22;5495;53.252;10.390;2023-03-12T07:48:25;2.00;99.90
10885;DHT22;5495;53.252;10.390;2023-03-12T07:50:52;2.00;99.90
10885;DHT22;5495;53.252;10.390;2023-03-12T07:53:21;2.10;99.90
10885;DHT22;5495;53.252;10.390;2023-03-12T07:55:49;2.20;99.90
10885;DHT22;5495;53.252;10.390;2023-03-12T07:58:16;2.30;99.90
10885;DHT22;5495;53.252;10.390;2023-03-12T08:00:44;2.20;99.90
10885;DHT22;5495;53.252;10.390;2023-03-12T08:03:14;2.40;99.90
10885;DHT22;5495;53.252;10.390;2023-03-12T08:05:43;2.50;99.90
10885;DHT22;5495;53.252;10.390;2023-03-12T08:08:10;2.60;99.90
10885;DHT22;5495;53.252;10.390;2023-03-12T08:10:40;2.30;99.90
10885;DHT22;5495;53.252;10.390;2023-03-12T08:13:08;2.60;99.90
10885;DHT22;5495;53.252;10.390;2023-03-12T08:15:35;2.60;99.90
10885;DHT22;5495;53.252;10.390;2023-03-12T08:18:06;2.60;99.90
10885;DHT22;5495;53.252;10.390;2023-03-12T08:20:33;2.60;99.90
10885;DHT22;5495;53.252;10.390;2023-03-12T08:23:01;2.70;99.90
10885;DHT22;5495;53.252;10.390;2023-03-12T08:25:28;2.80;99.90
10885;DHT22;5495;53.252;10.390;2023-03-12T08:27:59;3.20;99.90
10885;DHT22;5495;53.252;10.390;2023-03-12T08:30:26;3.00;99.90
10885;DHT22;5495;53.252;10.390;2023-03-12T08:32:54;3.00;99.90
10885;DHT22;5495;53.252;10.390;2023-03-12T08:35:22;3.20;99.90
10885;DHT22;5495;53.252;10.390;2023-03-12T08:37:55;3.30;99.90
10885;DHT22;5495;53.252;10.390;2023-03-12T08:40:24;3.60;99.90
10885;DHT22;5495;53.252;10.390;2023-03-12T08:42:51;2.80;99.90
10885;DHT22;5495;53.252;10.390;2023-03-12T08:45:45;3.60;99.90
10885;DHT22;5495;53.252;10.390;2023-03-12T08:48:15;3.50;99.90
10885;DHT22;5495;53.252;10.390;2023-03-12T08:50:45;3.50;99.90
10885;DHT22;5495;53.252;10.390;2023-03-12T08:53:20;3.70;99.90
10885;DHT22;5495;53.252;10.390;2023-03-12T08:55:48;3.30;99.90
10885;DHT22;5495;53.252;10.390;2023-03-12T08:58:21;3.30;99.90
10885;DHT22;5495;53.252;10.390;2023-03-12T09:00:56;4.10;99.90
10885;DHT22;5495;53.252;10.390;2023-03-12T09:03:26;3.40;99.90
10885;DHT22;5495;53.252;10.390;2023-03-12T09:06:03;3.50;99.90
10885;DHT22;5495;53.252;10.390;2023-03-12T09:09:03;3.40;99.90
10885;DHT22;5495;53.252;10.390;2023-03-12T09:11:31;3.50;99.90
10885;DHT22;5495;53.252;10.390;2023-03-12T09:14:05;3.50;99.90
10885;DHT22;5495;53.252;10.390;2023-03-12T09:19:56;3.50;99.90
10885;DHT22;5495;53.252;10.390;2023-03-12T09:25:30;2.80;99.90
10885;DHT22;5495;53.252;10.390;2023-03-12T09:27:57;3.90;99.90
10885;DHT22;5495;53.252;10.390;2023-03-12T09:30:26;4.00;99.90
10885;DHT22;5495;53.252;10.390;2023-03-12T09:32:55;4.10;99.90
10885;DHT22;5495;53.252;10.390;2023-03-12T09:35:24;4.10;99.90
10885;DHT22;5495;53.252;10.390;2023-03-12T09:37:51;4.10;99.90
10885;DHT22;5495;53.252;10.390;2023-03-12T09:40:29;4.00;99.90
10885;DHT22;5495;53.252;10.390;2023-03-12T09:42:59;4.00;99.90
10885;DHT22;5495;53.252;10.390;2023-03-12T09:45:32;3.90;99.90
10885;DHT22;5495;53.252;10.390;2023-03-12T09:48:04;3.90;99.90
10885;DHT22;5495;53.252;10.390;2023-03-12T09:50:35;3.90;99.90
10885;DHT22;5495;53.252;10.390;2023-03-12T09:53:10;4.00;99.90
10885;DHT22;5495;53.252;10.390;2023-03-12T09:55:44;4.00;99.90
10885;DHT22;5495;53.252;10.390;2023-03-12T09:58:24;4.00;99.90
10885;DHT22;5495;53.252;10.390;2023-03-12T10:00:59;4.20;99.90
10885;DHT22;5495;53.252;10.390;2023-03-12T10:03:43;4.30;99.90
10885;DHT22;5495;53.252;10.390;2023-03-12T10:06:19;4.40;99.90
10885;DHT22;5495;53.252;10.390;2023-03-12T10:08:58;4.30;99.90
10885;DHT22;5495;53.252;10.390;2023-03-12T10:11:37;4.20;99.90
10885;DHT22;5495;53.252;10.390;2023-03-12T10:14:31;4.30;99.90
10885;DHT22;5495;53.252;10.390;2023-03-12T10:17:15;4.40;99.90
10885;DHT22;5495;53.252;10.390;2023-03-12T10:19:54;4.50;99.90
10885;DHT22;5495;53.252;10.390;2023-03-12T10:22:44;4.80;99.90
10885;DHT22;5495;53.252;10.390;2023-03-12T10:25:21;5.00;99.90
10885;DHT22;5495;53.252;10.390;2023-03-12T10:27:54;5.20;99.90
10885;DHT22;5495;53.252;10.390;2023-03-12T10:30:28;5.30;99.90
10885;DHT22;5495;53.252;10.390;2023-03-12T10:33:00;5.50;99.90
10885;DHT22;5495;53.252;10.390;2023-03-12T10:35:39;5.60;99.40
10885;DHT22;5495;53.252;10.390;2023-03-12T10:38:16;5.80;99.10
10885;DHT22;5495;53.252;10.390;2023-03-12T10:40:48;5.90;99.80
10885;DHT22;5495;53.252;10.390;2023-03-12T10:43:16;5.90;98.80
10885;DHT22;5495;53.252;10.390;2023-03-12T10:45:49;5.90;98.50
10885;DHT22;5495;53.252;10.390;2023-03-12T10:48:20;5.80;98.20
10885;DHT22;5495;53.252;10.390;2023-03-12T10:51:00;5.70;98.00
10885;DHT22;5495;53.252;10.390;2023-03-12T10:53:32;5.60;98.40
10885;DHT22;5495;53.252;10.390;2023-03-12T10:56:03;5.50;98.50
10885;DHT22;5495;53.252;10.390;2023-03-12T10:58:34;5.40;98.40
10885;DHT22;5495;53.252;10.390;2023-03-12T11:01:05;5.40;98.70
10885;DHT22;5495;53.252;10.390;2023-03-12T11:03:33;5.40;99.10
10885;DHT22;5495;53.252;10.390;2023-03-12T11:06:19;5.30;98.60
10885;DHT22;5495;53.252;10.390;2023-03-12T11:09:04;5.30;98.70
10885;DHT22;5495;53.252;10.390;2023-03-12T11:11:34;5.30;98.60
10885;DHT22;5495;53.252;10.390;2023-03-12T11:14:06;5.20;98.90
10885;DHT22;5495;53.252;10.390;2023-03-12T11:16:34;5.20;98.80
10885;DHT22;5495;53.252;10.390;2023-03-12T11:19:02;5.10;98.90
10885;DHT22;5495;53.252;10.390;2023-03-12T11:21:32;5.10;99.10
10885;DHT22;5495;53.252;10.390;2023-03-12T11:24:10;5.10;99.60
10885;DHT22;5495;53.252;10.390;2023-03-12T11:26:45;5.00;99.50
10885;DHT22;5495;53.252;10.390;2023-03-12T11:32:11;5.10;98.90
10885;DHT22;5495;53.252;10.390;2023-03-12T11:34:42;5.00;98.90
10885;DHT22;5495;53.252;10.390;2023-03-12T11:37:15;5.00;98.80
10885;DHT22;5495;53.252;10.390;2023-03-12T11:40:09;4.90;99.30
10885;DHT22;5495;53.252;10.390;2023-03-12T11:42:47;4.90;98.90
10885;DHT22;5495;53.252;10.390;2023-03-12T11:45:22;4.90;98.50
10885;DHT22;5495;53.252;10.390;2023-03-12T11:48:02;4.90;99.00
10885;DHT22;5495;53.252;10.390;2023-03-12T11:50:42;4.90;98.50
10885;DHT22;5495;53.252;10.390;2023-03-12T11:53:45;4.80;98.60
10885;DHT22;5495;53.252;10.390;2023-03-12T11:56:23;4.80;98.50
10885;DHT22;5495;53.252;10.390;2023-03-12T11:59:29;4.80;98.60
10885;DHT22;5495;53.252;10.390;2023-03-12T12:02:13;4.80;99.10
10885;DHT22;5495;53.252;10.390;2023-03-12T12:10:49;4.90;98.50
10885;DHT22;5495;53.252;10.390;2023-03-12T12:13:25;4.90;98.30
10885;DHT22;5495;53.252;10.390;2023-03-12T12:16:12;5.00;97.80
10885;DHT22;5495;53.252;10.390;2023-03-12T12:18:54;4.90;97.90
10885;DHT22;5495;53.252;10.390;2023-03-12T12:21:46;4.90;98.20
10885;DHT22;5495;53.252;10.390;2023-03-12T12:24:28;4.80;98.40
10885;DHT22;5495;53.252;10.390;2023-03-12T12:27:12;4.90;97.90
10885;DHT22;5495;53.252;10.390;2023-03-12T12:29:55;4.90;98.40
10885;DHT22;5495;53.252;10.390;2023-03-12T12:32:32;4.80;97.90
10885;DHT22;5495;53.252;10.390;2023-03-12T12:35:13;4.80;98.30
10885;DHT22;5495;53.252;10.390;2023-03-12T12:37:56;4.80;99.30
10885;DHT22;5495;53.252;10.390;2023-03-12T12:40:28;4.80;99.30
10885;DHT22;5495;53.252;10.390;2023-03-12T12:43:05;4.80;98.90
10885;DHT22;5495;53.252;10.390;2023-03-12T12:45:40;4.80;99.30
10885;DHT22;5495;53.252;10.390;2023-03-12T12:48:12;4.90;99.30
10885;DHT22;5495;53.252;10.390;2023-03-12T12:50:43;4.90;99.20
10885;DHT22;5495;53.252;10.390;2023-03-12T12:53:17;4.90;99.30
10885;DHT22;5495;53.252;10.390;2023-03-12T12:56:00;4.80;99.70
10885;DHT22;5495;53.252;10.390;2023-03-12T12:58:59;4.90;99.30
10885;DHT22;5495;53.252;10.390;2023-03-12T13:01:32;4.90;99.10
10885;DHT22;5495;53.252;10.390;2023-03-12T13:04:05;4.90;99.20
10885;DHT22;5495;53.252;10.390;2023-03-12T13:06:56;4.90;99.30
10885;DHT22;5495;53.252;10.390;2023-03-12T13:09:45;5.00;99.40
10885;DHT22;5495;53.252;10.390;2023-03-12T13:12:19;5.00;99.70
10885;DHT22;5495;53.252;10.390;2023-03-12T13:14:48;4.50;99.90
10885;DHT22;5495;53.252;10.390;2023-03-12T13:17:26;5.00;99.90
10885;DHT22;5495;53.252;10.390;2023-03-12T13:20:01;5.00;99.90
10885;DHT22;5495;53.252;10.390;2023-03-12T13:22:57;5.00;99.90
10885;DHT22;5495;53.252;10.390;2023-03-12T13:25:40;5.00;99.90
10885;DHT22;5495;53.252;10.390;2023-03-12T13:28:36;5.00;99.90
10885;DHT22;5495;53.252;10.390;2023-03-12T13:31:41;4.80;99.90
10885;DHT22;5495;53.252;10.390;2023-03-12T13:34:42;4.70;99.90
10885;DHT22;5495;53.252;10.390;2023-03-12T13:37:27;4.60;99.90
10885;DHT22;5495;53.252;10.390;2023-03-12T13:39:59;4.60;99.90
10885;DHT22;5495;53.252;10.390;2023-03-12T13:42:40;4.60;99.90
10885;DHT22;5495;53.252;10.390;2023-03-12T13:45:22;4.60;99.90
10885;DHT22;5495;53.252;10.390;2023-03-12T13:47:58;4.50;99.90
10885;DHT22;5495;53.252;10.390;2023-03-12T13:50:29;4.50;99.90
10885;DHT22;5495;53.252;10.390;2023-03-12T13:53:21;4.40;99.90
10885;DHT22;5495;53.252;10.390;2023-03-12T13:56:09;3.80;99.90
10885;DHT22;5495;53.252;10.390;2023-03-12T13:58:47;5.70;99.90
10885;DHT22;5495;53.252;10.390;2023-03-12T14:01:30;4.30;99.90
10885;DHT22;5495;53.252;10.390;2023-03-12T14:04:10;4.40;99.90
10885;DHT22;5495;53.252;10.390;2023-03-12T14:06:57;4.50;99.90
10885;DHT22;5495;53.252;10.390;2023-03-12T14:09:34;4.40;99.90
10885;DHT22;5495;53.252;10.390;2023-03-12T14:12:13;4.30;99.90
10885;DHT22;5495;53.252;10.390;2023-03-12T14:15:01;4.10;99.90
10885;DHT22;5495;53.252;10.390;2023-03-12T14:17:33;4.10;99.90
10885;DHT22;5495;53.252;10.390;2023-03-12T14:20:04;4.00;99.90
10885;DHT22;5495;53.252;10.390;2023-03-12T14:22:39;4.00;99.90
10885;DHT22;5495;53.252;10.390;2023-03-12T14:25:14;3.90;99.90
10885;DHT22;5495;53.252;10.390;2023-03-12T14:27:52;4.00;99.90
10885;DHT22;5495;53.252;10.390;2023-03-12T14:30:27;4.00;99.90
10885;DHT22;5495;53.252;10.390;2023-03-12T14:32:59;4.10;99.90
10885;DHT22;5495;53.252;10.390;2023-03-12T14:35:33;3.90;99.90
10885;DHT22;5495;53.252;10.390;2023-03-12T14:38:16;3.80;99.90
10885;DHT22;5495;53.252;10.390;2023-03-12T14:40:56;3.80;99.90
10885;DHT22;5495;53.252;10.390;2023-03-12T14:43:30;3.80;99.90
10885;DHT22;5495;53.252;10.390;2023-03-12T14:46:22;3.90;99.90
10885;DHT22;5495;53.252;10.390;2023-03-12T14:48:56;3.80;99.90
10885;DHT22;5495;53.252;10.390;2023-03-12T14:51:35;3.90;99.90
10885;DHT22;5495;53.252;10.390;2023-03-12T14:54:04;4.20;99.90
10885;DHT22;5495;53.252;10.390;2023-03-12T14:56:32;3.80;99.90
10885;DHT22;5495;53.252;10.390;2023-03-12T14:59:24;3.80;99.90
10885;DHT22;5495;53.252;10.390;2023-03-12T15:01:59;3.80;99.90
10885;DHT22;5495;53.252;10.390;2023-03-12T15:04:32;3.70;99.90
10885;DHT22;5495;53.252;10.390;2023-03-12T15:07:04;3.70;99.90
10885;DHT22;5495;53.252;10.390;2023-03-12T15:09:35;3.60;99.90
10885;DHT22;5495;53.252;10.390;2023-03-12T15:12:15;3.60;99.90
10885;DHT22;5495;53.252;10.390;2023-03-12T15:15:05;3.80;99.90
10885;DHT22;5495;53.252;10.390;2023-03-12T15:17:39;3.50;99.90
10885;DHT22;5495;53.252;10.390;2023-03-12T15:20:16;2.80;99.90
10885;DHT22;5495;53.252;10.390;2023-03-12T15:22:52;3.40;99.90
10885;DHT22;5495;53.252;10.390;2023-03-12T15:25:25;3.40;99.90
10885;DHT22;5495;53.252;10.390;2023-03-12T15:28:21;3.30;99.90
10885;DHT22;5495;53.252;10.390;2023-03-12T15:31:09;3.20;99.90
10885;DHT22;5495;53.252;10.390;2023-03-12T15:33:40;3.30;99.90
10885;DHT22;5495;53.252;10.390;2023-03-12T15:36:27;3.30;99.90
10885;DHT22;5495;53.252;10.390;2023-03-12T15:38:58;3.30;99.90
10885;DHT22;5495;53.252;10.390;2023-03-12T15:41:35;2.70;99.90
10885;DHT22;5495;53.252;10.390;2023-03-12T15:44:18;3.20;99.90
10885;DHT22;5495;53.252;10.390;2023-03-12T15:46:55;3.20;99.90
10885;DHT22;5495;53.252;10.390;2023-03-12T15:49:34;2.50;99.90
10885;DHT22;5495;53.252;10.390;2023-03-12T15:52:27;3.10;99.90
10885;DHT22;5495;53.252;10.390;2023-03-12T15:55:17;3.10;99.90
10885;DHT22;5495;53.252;10.390;2023-03-12T15:57:52;3.10;99.90
10885;DHT22;5495;53.252;10.390;2023-03-12T16:00:29;3.10;99.90
10885;DHT22;5495;53.252;10.390;2023-03-12T16:02:58;3.10;99.90
10885;DHT22;5495;53.252;10.390;2023-03-12T16:05:31;3.20;99.90
10885;DHT22;5495;53.252;10.390;2023-03-12T16:08:00;3.10;99.90
10885;DHT22;5495;53.252;10.390;2023-03-12T16:10:31;3.10;99.90
10885;DHT22;5495;53.252;10.390;2023-03-12T16:13:03;3.10;99.90
10885;DHT22;5495;53.252;10.390;2023-03-12T16:15:33;3.00;99.90
10885;DHT22;5495;53.252;10.390;2023-03-12T16:18:02;3.00;99.90
10885;DHT22;5495;53.252;10.390;2023-03-12T16:20:35;3.00;99.90
10885;DHT22;5495;53.252;10.390;2023-03-12T16:23:02;3.10;99.90
10885;DHT22;5495;53.252;10.390;2023-03-12T16:25:30;3.10;99.90
10885;DHT22;5495;53.252;10.390;2023-03-12T16:28:04;3.20;99.90
10885;DHT22;5495;53.252;10.390;2023-03-12T16:30:33;3.10;99.90
10885;DHT22;5495;53.252;10.390;2023-03-12T16:33:03;3.10;99.90
10885;DHT22;5495;53.252;10.390;2023-03-12T16:35:31;3.00;99.90
10885;DHT22;5495;53.252;10.390;2023-03-12T16:37:59;3.10;99.90
10885;DHT22;5495;53.252;10.390;2023-03-12T16:40:27;3.10;99.90
10885;DHT22;5495;53.252;10.390;2023-03-12T16:42:57;3.10;99.90
10885;DHT22;5495;53.252;10.390;2023-03-12T16:45:29;3.10;99.90
10885;DHT22;5495;53.252;10.390;2023-03-12T16:48:00;3.20;99.90
10885;DHT22;5495;53.252;10.390;2023-03-12T16:50:29;3.20;99.90
10885;DHT22;5495;53.252;10.390;2023-03-12T16:52:57;3.10;99.90